sensor_id;sensor_type;location;lat;lon;timestamp;temperature;humidity
5802;DHT22;2927;49.366;8.530;2024-01-07T00:00:43;4.50;99.90
5802;DHT22;2927;49.366;8.530;2024-01-07T00:03:09;4.50;99.90
5802;DHT22;2927;49.366;8.530;2024-01-07T00:05:36;4.50;99.90
5802;DHT22;2927;49.366;8.530;2024-01-07T00:08:03;4.50;99.90
5802;DHT22;2927;49.366;8.530;2024-01-07T00:10:28;4.50;99.90
5802;DHT22;2927;49.366;8.530;2024-01-07T00:12:54;4.50;99.90
5802;DHT22;2927;49.366;8.530;2024-01-07T00:15:20;4.50;99.90
5802;DHT22;2927;49.366;8.530;2024-01-07T00:17:45;4.50;99.90
5802;DHT22;2927;49.366;8.530;2024-01-07T00:20:11;4.50;99.90
5802;DHT22;2927;49.366;8.530;2024-01-07T00:22:36;4.50;99.90
5802;DHT22;2927;49.366;8.530;2024-01-07T00:25:02;4.50;99.90
5802;DHT22;2927;49.366;8.530;2024-01-07T00:27:28;4.50;99.90
5802;DHT22;2927;49.366;8.530;2024-01-07T00:29:53;4.50;99.90
5802;DHT22;2927;49.366;8.530;2024-01-07T00:32:19;4.50;99.90
5802;DHT22;2927;49.366;8.530;2024-01-07T00:34:44;4.50;99.90
5802;DHT22;2927;49.366;8.530;2024-01-07T00:37:10;4.50;99.90
5802;DHT22;2927;49.366;8.530;2024-01-07T00:39:35;4.50;99.90
5802;DHT22;2927;49.366;8.530;2024-01-07T00:42:01;4.50;99.90
5802;DHT22;2927;49.366;8.530;2024-01-07T00:44:26;4.50;99.90
5802;DHT22;2927;49.366;8.530;2024-01-07T00:46:52;4.40;99.90
5802;DHT22;2927;49.366;8.530;2024-01-07T00:49:17;4.40;99.90
5802;DHT22;2927;49.366;8.530;2024-01-07T00:51:44;4.40;99.90
5802;DHT22;2927;49.366;8.530;2024-01-07T00:54:10;4.50;99.90
5802;DHT22;2927;49.366;8.530;2024-01-07T00:56:35;4.40;99.90
5802;DHT22;2927;49.366;8.530;2024-01-07T00:59:01;4.40;99.90
5802;DHT22;2927;49.366;8.530;2024-01-07T01:01:27;4.40;99.90
5802;DHT22;2927;49.366;8.530;2024-01-07T01:03:53;4.40;99.90
5802;DHT22;2927;49.366;8.530;2024-01-07T01:06:18;4.40;99.90
5802;DHT22;2927;49.366;8.530;2024-01-07T01:08:44;4.40;99.90
5802;DHT22;2927;49.366;8.530;2024-01-07T01:11:09;4.40;99.90
5802;DHT22;2927;49.366;8.530;2024-01-07T01:13:35;4.40;99.90
5802;DHT22;2927;49.366;8.530;2024-01-07T01:16:01;4.40;99.90
5802;DHT22;2927;49.366;8.530;2024-01-07T01:18:27;4.40;99.90
5802;DHT22;2927;49.366;8.530;2024-01-07T01:20:52;4.40;99.90
5802;DHT22;2927;49.366;8.530;2024-01-07T01:23:18;4.40;99.90
5802;DHT22;2927;49.366;8.530;2024-01-07T01:25:43;4.40;99.90
5802;DHT22;2927;49.366;8.530;2024-01-07T01:28:09;4.40;99.90
5802;DHT22;2927;49.366;8.530;2024-01-07T01:30:35;4.30;99.90
5802;DHT22;2927;49.366;8.530;2024-01-07T01:33:01;4.30;99.90
5802;DHT22;2927;49.366;8.530;2024-01-07T01:35:27;4.30;99.90
5802;DHT22;2927;49.366;8.530;2024-01-07T01:37:53;4.30;99.90
5802;DHT22;2927;49.366;8.530;2024-01-07T01:40:20;4.30;99.90
5802;DHT22;2927;49.366;8.530;2024-01-07T01:42:45;4.40;99.90
5802;DHT22;2927;49.366;8.530;2024-01-07T01:45:14;4.40;99.90
5802;DHT22;2927;49.366;8.530;2024-01-07T01:47:39;4.40;99.90
5802;DHT22;2927;49.366;8.530;2024-01-07T01:50:06;4.40;99.90
5802;DHT22;2927;49.366;8.530;2024-01-07T01:52:31;4.40;99.90
5802;DHT22;2927;49.366;8.530;2024-01-07T01:54:58;4.50;99.90
5802;DHT22;2927;49.366;8.530;2024-01-07T01:57:31;4.40;99.90
5802;DHT22;2927;49.366;8.530;2024-01-07T01:59:57;4.40;99.90
5802;DHT22;2927;49.366;8.530;2024-01-07T02:02:29;4.40;99.90
5802;DHT22;2927;49.366;8.530;2024-01-07T02:04:57;4.40;99.90
5802;DHT22;2927;49.366;8.530;2024-01-07T02:07:24;4.40;99.90
5802;DHT22;2927;49.366;8.530;2024-01-07T02:09:49;4.40;99.90
5802;DHT22;2927;49.366;8.530;2024-01-07T02:12:15;4.50;99.90
5802;DHT22;2927;49.366;8.530;2024-01-07T02:18:02;4.50;99.90
5802;DHT22;2927;49.366;8.530;2024-01-07T02:20:28;4.50;99.90
5802;DHT22;2927;49.366;8.530;2024-01-07T02:22:53;4.40;99.90
5802;DHT22;2927;49.366;8.530;2024-01-07T02:25:19;4.50;99.90
5802;DHT22;2927;49.366;8.530;2024-01-07T02:27:44;4.50;99.90
5802;DHT22;2927;49.366;8.530;2024-01-07T02:30:10;4.40;99.90
5802;DHT22;2927;49.366;8.530;2024-01-07T02:32:36;4.50;99.90
5802;DHT22;2927;49.366;8.530;2024-01-07T02:35:04;4.50;99.90
5802;DHT22;2927;49.366;8.530;2024-01-07T02:37:30;4.40;99.90
5802;DHT22;2927;49.366;8.530;2024-01-07T02:39:56;4.40;99.90
5802;DHT22;2927;49.366;8.530;2024-01-07T02:42:22;4.40;99.90
5802;DHT22;2927;49.366;8.530;2024-01-07T02:44:47;4.40;99.90
5802;DHT22;2927;49.366;8.530;2024-01-07T02:47:13;4.40;99.90
5802;DHT22;2927;49.366;8.530;2024-01-07T02:49:38;4.40;99.90
5802;DHT22;2927;49.366;8.530;2024-01-07T02:52:04;4.40;99.90
5802;DHT22;2927;49.366;8.530;2024-01-07T02:54:29;4.40;99.90
5802;DHT22;2927;49.366;8.530;2024-01-07T02:56:55;4.30;99.90
5802;DHT22;2927;49.366;8.530;2024-01-07T02:59:21;4.30;99.90
5802;DHT22;2927;49.366;8.530;2024-01-07T03:01:46;4.30;99.90
5802;DHT22;2927;49.366;8.530;2024-01-07T03:04:16;4.30;99.90
5802;DHT22;2927;49.366;8.530;2024-01-07T03:06:42;4.30;99.90
5802;DHT22;2927;49.366;8.530;2024-01-07T03:09:08;4.30;99.90
5802;DHT22;2927;49.366;8.530;2024-01-07T03:11:33;4.30;99.90
5802;DHT22;2927;49.366;8.530;2024-01-07T03:14:03;4.30;99.90
5802;DHT22;2927;49.366;8.530;2024-01-07T03:16:29;4.30;99.90
5802;DHT22;2927;49.366;8.530;2024-01-07T03:18:54;4.30;99.90
5802;DHT22;2927;49.366;8.530;2024-01-07T03:21:21;4.30;99.90
5802;DHT22;2927;49.366;8.530;2024-01-07T03:23:48;4.30;99.90
5802;DHT22;2927;49.366;8.530;2024-01-07T03:26:14;4.30;99.90
5802;DHT22;2927;49.366;8.530;2024-01-07T03:28:39;4.30;99.90
5802;DHT22;2927;49.366;8.530;2024-01-07T03:31:08;4.30;99.90
5802;DHT22;2927;49.366;8.530;2024-01-07T03:33:34;4.30;99.90
5802;DHT22;2927;49.366;8.530;2024-01-07T03:36:00;4.30;99.90
5802;DHT22;2927;49.366;8.530;2024-01-07T03:38:25;4.30;99.90
5802;DHT22;2927;49.366;8.530;2024-01-07T03:40:51;4.30;99.90
5802;DHT22;2927;49.366;8.530;2024-01-07T03:43:16;4.30;99.90
5802;DHT22;2927;49.366;8.530;2024-01-07T03:45:42;4.30;99.90
5802;DHT22;2927;49.366;8.530;2024-01-07T03:48:08;4.30;99.90
5802;DHT22;2927;49.366;8.530;2024-01-07T03:50:34;4.30;99.90
5802;DHT22;2927;49.366;8.530;2024-01-07T03:53:00;4.30;99.90
5802;DHT22;2927;49.366;8.530;2024-01-07T03:55:25;4.30;99.90
5802;DHT22;2927;49.366;8.530;2024-01-07T03:57:51;4.30;99.90
5802;DHT22;2927;49.366;8.530;2024-01-07T04:00:16;4.30;99.90
5802;DHT22;2927;49.366;8.530;2024-01-07T04:02:42;4.30;99.90
5802;DHT22;2927;49.366;8.530;2024-01-07T04:05:09;4.30;99.90
5802;DHT22;2927;49.366;8.530;2024-01-07T04:07:35;4.30;99.90
5802;DHT22;2927;49.366;8.530;2024-01-07T04:10:00;4.30;99.90
5802;DHT22;2927;49.366;8.530;2024-01-07T04:12:26;4.30;99.90
5802;DHT22;2927;49.366;8.530;2024-01-07T04:14:51;4.30;99.90
5802;DHT22;2927;49.366;8.530;2024-01-07T04:17:17;4.30;99.90
5802;DHT22;2927;49.366;8.530;2024-01-07T04:19:42;4.30;99.90
5802;DHT22;2927;49.366;8.530;2024-01-07T04:22:08;4.20;99.90
5802;DHT22;2927;49.366;8.530;2024-01-07T04:24:33;4.20;99.90
5802;DHT22;2927;49.366;8.530;2024-01-07T04:26:59;4.20;99.90
5802;DHT22;2927;49.366;8.530;2024-01-07T04:29:24;4.20;99.90
5802;DHT22;2927;49.366;8.530;2024-01-07T04:31:50;4.20;99.90
5802;DHT22;2927;49.366;8.530;2024-01-07T04:34:15;4.20;99.90
5802;DHT22;2927;49.366;8.530;2024-01-07T04:36:41;4.20;99.90
5802;DHT22;2927;49.366;8.530;2024-01-07T04:39:06;4.20;99.90
5802;DHT22;2927;49.366;8.530;2024-01-07T04:41:32;4.20;99.90
5802;DHT22;2927;49.366;8.530;2024-01-07T04:43:57;4.20;99.90
5802;DHT22;2927;49.366;8.530;2024-01-07T04:46:23;4.10;99.90
5802;DHT22;2927;49.366;8.530;2024-01-07T04:48:48;4.20;99.90
5802;DHT22;2927;49.366;8.530;2024-01-07T04:51:14;4.20;99.90
5802;DHT22;2927;49.366;8.530;2024-01-07T04:53:39;4.20;99.90
5802;DHT22;2927;49.366;8.530;2024-01-07T04:56:05;4.20;99.90
5802;DHT22;2927;49.366;8.530;2024-01-07T04:58:31;4.20;99.90
5802;DHT22;2927;49.366;8.530;2024-01-07T05:00:56;4.20;99.90
5802;DHT22;2927;49.366;8.530;2024-01-07T05:03:22;4.20;99.90
5802;DHT22;2927;49.366;8.530;2024-01-07T05:05:47;4.20;99.90
5802;DHT22;2927;49.366;8.530;2024-01-07T05:08:13;4.20;99.90
5802;DHT22;2927;49.366;8.530;2024-01-07T05:10:38;4.20;99.90
5802;DHT22;2927;49.366;8.530;2024-01-07T05:13:04;4.20;99.90
5802;DHT22;2927;49.366;8.530;2024-01-07T05:15:32;4.20;99.90
5802;DHT22;2927;49.366;8.530;2024-01-07T05:17:58;4.20;99.90
5802;DHT22;2927;49.366;8.530;2024-01-07T05:20:23;4.20;99.90
5802;DHT22;2927;49.366;8.530;2024-01-07T05:22:49;4.30;99.90
5802;DHT22;2927;49.366;8.530;2024-01-07T05:25:14;4.30;99.90
5802;DHT22;2927;49.366;8.530;2024-01-07T05:27:40;4.20;99.90
5802;DHT22;2927;49.366;8.530;2024-01-07T05:30:06;4.20;99.90
5802;DHT22;2927;49.366;8.530;2024-01-07T05:32:33;4.30;99.90
5802;DHT22;2927;49.366;8.530;2024-01-07T05:34:58;4.30;99.90
5802;DHT22;2927;49.366;8.530;2024-01-07T05:37:24;4.30;99.90
5802;DHT22;2927;49.366;8.530;2024-01-07T05:39:49;4.30;99.90
5802;DHT22;2927;49.366;8.530;2024-01-07T05:42:15;4.30;99.90
5802;DHT22;2927;49.366;8.530;2024-01-07T05:44:40;4.30;99.90
5802;DHT22;2927;49.366;8.530;2024-01-07T05:47:06;4.20;99.90
5802;DHT22;2927;49.366;8.530;2024-01-07T05:49:31;4.20;99.90
5802;DHT22;2927;49.366;8.530;2024-01-07T05:51:58;4.20;99.90
5802;DHT22;2927;49.366;8.530;2024-01-07T05:54:23;4.30;99.90
5802;DHT22;2927;49.366;8.530;2024-01-07T05:56:49;4.30;99.90
5802;DHT22;2927;49.366;8.530;2024-01-07T05:59:14;4.30;99.90
5802;DHT22;2927;49.366;8.530;2024-01-07T06:01:40;4.30;99.90
5802;DHT22;2927;49.366;8.530;2024-01-07T06:04:05;4.30;99.90
5802;DHT22;2927;49.366;8.530;2024-01-07T06:06:31;4.20;99.90
5802;DHT22;2927;49.366;8.530;2024-01-07T06:08:57;4.20;99.90
5802;DHT22;2927;49.366;8.530;2024-01-07T06:11:22;4.20;99.90
5802;DHT22;2927;49.366;8.530;2024-01-07T06:13:48;4.20;99.90
5802;DHT22;2927;49.366;8.530;2024-01-07T06:16:14;4.20;99.90
5802;DHT22;2927;49.366;8.530;2024-01-07T06:18:40;4.20;99.90
5802;DHT22;2927;49.366;8.530;2024-01-07T06:21:05;4.20;99.90
5802;DHT22;2927;49.366;8.530;2024-01-07T06:23:34;4.20;99.90
5802;DHT22;2927;49.366;8.530;2024-01-07T06:26:00;4.20;99.90
5802;DHT22;2927;49.366;8.530;2024-01-07T06:28:25;4.20;99.90
5802;DHT22;2927;49.366;8.530;2024-01-07T06:30:50;4.20;99.90
5802;DHT22;2927;49.366;8.530;2024-01-07T06:33:16;4.20;99.90
5802;DHT22;2927;49.366;8.530;2024-01-07T06:35:42;4.20;99.90
5802;DHT22;2927;49.366;8.530;2024-01-07T06:38:07;4.20;99.90
5802;DHT22;2927;49.366;8.530;2024-01-07T06:40:33;4.20;99.90
5802;DHT22;2927;49.366;8.530;2024-01-07T06:42:58;4.20;99.90
5802;DHT22;2927;49.366;8.530;2024-01-07T06:45:24;4.30;99.90
5802;DHT22;2927;49.366;8.530;2024-01-07T06:47:49;4.30;99.90
5802;DHT22;2927;49.366;8.530;2024-01-07T06:50:15;4.30;99.90
5802;DHT22;2927;49.366;8.530;2024-01-07T06:52:41;4.30;99.90
5802;DHT22;2927;49.366;8.530;2024-01-07T06:55:07;4.30;99.90
5802;DHT22;2927;49.366;8.530;2024-01-07T06:57:33;4.30;99.90
5802;DHT22;2927;49.366;8.530;2024-01-07T06:59:59;4.30;99.90
5802;DHT22;2927;49.366;8.530;2024-01-07T07:02:24;4.20;99.90
5802;DHT22;2927;49.366;8.530;2024-01-07T07:04:50;4.30;99.90
5802;DHT22;2927;49.366;8.530;2024-01-07T07:07:17;4.30;99.90
5802;DHT22;2927;49.366;8.530;2024-01-07T07:09:42;4.30;99.90
5802;DHT22;2927;49.366;8.530;2024-01-07T07:12:08;4.20;99.90
5802;DHT22;2927;49.366;8.530;2024-01-07T07:14:34;4.20;99.90
5802;DHT22;2927;49.366;8.530;2024-01-07T07:17:00;4.20;99.90
5802;DHT22;2927;49.366;8.530;2024-01-07T07:19:25;4.30;99.90
5802;DHT22;2927;49.366;8.530;2024-01-07T07:21:51;4.20;99.90
5802;DHT22;2927;49.366;8.530;2024-01-07T07:24:16;4.30;99.90
5802;DHT22;2927;49.366;8.530;2024-01-07T07:26:42;4.30;99.90
5802;DHT22;2927;49.366;8.530;2024-01-07T07:29:11;4.30;99.90
5802;DHT22;2927;49.366;8.530;2024-01-07T07:31:37;4.30;99.90
5802;DHT22;2927;49.366;8.530;2024-01-07T07:34:09;4.30;99.90
5802;DHT22;2927;49.366;8.530;2024-01-07T07:36:35;4.30;99.90
5802;DHT22;2927;49.366;8.530;2024-01-07T07:39:00;4.30;99.90
5802;DHT22;2927;49.366;8.530;2024-01-07T07:41:26;4.30;99.90
5802;DHT22;2927;49.366;8.530;2024-01-07T07:43:51;4.30;99.90
5802;DHT22;2927;49.366;8.530;2024-01-07T07:46:17;4.30;99.90
5802;DHT22;2927;49.366;8.530;2024-01-07T07:48:42;4.30;99.90
5802;DHT22;2927;49.366;8.530;2024-01-07T07:51:08;4.30;99.90
5802;DHT22;2927;49.366;8.530;2024-01-07T07:53:34;4.40;99.90
5802;DHT22;2927;49.366;8.530;2024-01-07T07:55:59;4.40;99.90
5802;DHT22;2927;49.366;8.530;2024-01-07T07:58:25;4.30;99.90
5802;DHT22;2927;49.366;8.530;2024-01-07T08:00:50;4.40;99.90
5802;DHT22;2927;49.366;8.530;2024-01-07T08:03:16;4.40;99.90
5802;DHT22;2927;49.366;8.530;2024-01-07T08:05:41;4.40;99.90
5802;DHT22;2927;49.366;8.530;2024-01-07T08:08:07;4.40;99.90
5802;DHT22;2927;49.366;8.530;2024-01-07T08:10:33;4.40;99.90
5802;DHT22;2927;49.366;8.530;2024-01-07T08:13:00;4.40;99.90
5802;DHT22;2927;49.366;8.530;2024-01-07T08:15:26;4.40;99.90
5802;DHT22;2927;49.366;8.530;2024-01-07T08:17:52;4.40;99.90
5802;DHT22;2927;49.366;8.530;2024-01-07T08:20:17;4.40;99.90
5802;DHT22;2927;49.366;8.530;2024-01-07T08:22:43;4.40;99.90
5802;DHT22;2927;49.366;8.530;2024-01-07T08:25:08;4.40;99.90
5802;DHT22;2927;49.366;8.530;2024-01-07T08:27:34;4.40;99.90
5802;DHT22;2927;49.366;8.530;2024-01-07T08:30:00;4.40;99.90
5802;DHT22;2927;49.366;8.530;2024-01-07T08:32:26;4.40;99.90
5802;DHT22;2927;49.366;8.530;2024-01-07T08:34:52;4.40;99.90
5802;DHT22;2927;49.366;8.530;2024-01-07T08:37:17;4.40;99.90
5802;DHT22;2927;49.366;8.530;2024-01-07T08:39:43;4.40;99.90
5802;DHT22;2927;49.366;8.530;2024-01-07T08:42:08;4.40;99.90
5802;DHT22;2927;49.366;8.530;2024-01-07T08:44:34;4.50;99.90
5802;DHT22;2927;49.366;8.530;2024-01-07T08:47:00;4.50;99.90
5802;DHT22;2927;49.366;8.530;2024-01-07T08:49:27;4.50;99.90
5802;DHT22;2927;49.366;8.530;2024-01-07T08:51:53;4.50;99.90
5802;DHT22;2927;49.366;8.530;2024-01-07T08:54:19;4.60;99.90
5802;DHT22;2927;49.366;8.530;2024-01-07T08:56:44;4.60;99.90
5802;DHT22;2927;49.366;8.530;2024-01-07T08:59:10;4.50;99.90
5802;DHT22;2927;49.366;8.530;2024-01-07T09:01:36;4.50;99.90
5802;DHT22;2927;49.366;8.530;2024-01-07T09:04:01;4.50;99.90
5802;DHT22;2927;49.366;8.530;2024-01-07T09:06:27;4.40;99.90
5802;DHT22;2927;49.366;8.530;2024-01-07T09:08:52;4.50;99.90
5802;DHT22;2927;49.366;8.530;2024-01-07T09:11:21;4.50;99.90
5802;DHT22;2927;49.366;8.530;2024-01-07T09:13:47;4.50;99.90
5802;DHT22;2927;49.366;8.530;2024-01-07T09:16:16;4.40;99.90
5802;DHT22;2927;49.366;8.530;2024-01-07T09:18:41;4.40;99.90
5802;DHT22;2927;49.366;8.530;2024-01-07T09:21:09;4.30;99.90
5802;DHT22;2927;49.366;8.530;2024-01-07T09:23:34;4.30;99.90
5802;DHT22;2927;49.366;8.530;2024-01-07T09:26:01;4.30;99.90
5802;DHT22;2927;49.366;8.530;2024-01-07T09:28:27;4.40;99.90
5802;DHT22;2927;49.366;8.530;2024-01-07T09:30:52;4.30;24.50
5802;DHT22;2927;49.366;8.530;2024-01-07T09:33:18;4.30;1.00
5802;DHT22;2927;49.366;8.530;2024-01-07T09:35:45;4.30;1.00
5802;DHT22;2927;49.366;8.530;2024-01-07T09:38:10;4.30;1.00
5802;DHT22;2927;49.366;8.530;2024-01-07T09:40:38;4.30;1.00
5802;DHT22;2927;49.366;8.530;2024-01-07T09:43:04;4.30;1.00
5802;DHT22;2927;49.366;8.530;2024-01-07T09:45:31;4.40;1.00
5802;DHT22;2927;49.366;8.530;2024-01-07T09:47:56;4.40;1.00
5802;DHT22;2927;49.366;8.530;2024-01-07T09:50:22;4.40;1.00
5802;DHT22;2927;49.366;8.530;2024-01-07T09:52:48;4.40;1.00
5802;DHT22;2927;49.366;8.530;2024-01-07T09:55:27;4.50;1.00
5802;DHT22;2927;49.366;8.530;2024-01-07T09:57:53;4.50;1.00
5802;DHT22;2927;49.366;8.530;2024-01-07T10:00:20;4.40;1.00
5802;DHT22;2927;49.366;8.530;2024-01-07T10:02:45;4.50;1.00
5802;DHT22;2927;49.366;8.530;2024-01-07T10:05:11;4.40;1.00
5802;DHT22;2927;49.366;8.530;2024-01-07T10:07:36;4.30;1.00
5802;DHT22;2927;49.366;8.530;2024-01-07T10:10:15;4.30;1.00
5802;DHT22;2927;49.366;8.530;2024-01-07T10:12:44;4.40;1.00
5802;DHT22;2927;49.366;8.530;2024-01-07T10:15:09;4.30;99.90
5802;DHT22;2927;49.366;8.530;2024-01-07T10:17:35;4.30;99.90
5802;DHT22;2927;49.366;8.530;2024-01-07T10:20:01;4.30;99.90
5802;DHT22;2927;49.366;8.530;2024-01-07T10:22:31;4.20;42.50
5802;DHT22;2927;49.366;8.530;2024-01-07T10:24:57;4.20;1.00
5802;DHT22;2927;49.366;8.530;2024-01-07T10:27:23;4.20;1.00
5802;DHT22;2927;49.366;8.530;2024-01-07T10:29:50;4.20;1.00
5802;DHT22;2927;49.366;8.530;2024-01-07T10:32:19;4.20;1.00
5802;DHT22;2927;49.366;8.530;2024-01-07T10:34:46;4.20;99.90
5802;DHT22;2927;49.366;8.530;2024-01-07T10:37:12;4.20;99.90
5802;DHT22;2927;49.366;8.530;2024-01-07T10:39:38;4.20;1.00
5802;DHT22;2927;49.366;8.530;2024-01-07T10:42:04;4.20;63.60
5802;DHT22;2927;49.366;8.530;2024-01-07T10:44:32;4.20;99.90
5802;DHT22;2927;49.366;8.530;2024-01-07T10:46:58;4.20;3.90
5802;DHT22;2927;49.366;8.530;2024-01-07T10:49:26;4.10;1.00
5802;DHT22;2927;49.366;8.530;2024-01-07T10:52:08;4.10;1.00
5802;DHT22;2927;49.366;8.530;2024-01-07T10:54:37;4.10;1.00
5802;DHT22;2927;49.366;8.530;2024-01-07T10:57:34;4.10;98.40
5802;DHT22;2927;49.366;8.530;2024-01-07T11:00:02;4.10;1.00
5802;DHT22;2927;49.366;8.530;2024-01-07T11:02:43;4.10;99.90
5802;DHT22;2927;49.366;8.530;2024-01-07T11:05:17;4.10;1.00
5802;DHT22;2927;49.366;8.530;2024-01-07T11:07:48;4.00;1.00
5802;DHT22;2927;49.366;8.530;2024-01-07T11:10:20;4.00;99.90
5802;DHT22;2927;49.366;8.530;2024-01-07T11:12:54;4.10;1.00
5802;DHT22;2927;49.366;8.530;2024-01-07T11:18:19;4.10;99.90
5802;DHT22;2927;49.366;8.530;2024-01-07T11:20:46;4.20;99.90
5802;DHT22;2927;49.366;8.530;2024-01-07T11:23:31;4.20;1.00
5802;DHT22;2927;49.366;8.530;2024-01-07T11:26:05;4.30;1.00
5802;DHT22;2927;49.366;8.530;2024-01-07T11:28:54;4.60;99.90
5802;DHT22;2927;49.366;8.530;2024-01-07T11:34:06;4.90;1.00
5802;DHT22;2927;49.366;8.530;2024-01-07T11:36:38;4.90;1.00
5802;DHT22;2927;49.366;8.530;2024-01-07T11:39:04;4.90;1.00
5802;DHT22;2927;49.366;8.530;2024-01-07T11:41:35;4.90;1.00
5802;DHT22;2927;49.366;8.530;2024-01-07T11:44:02;4.80;1.00
5802;DHT22;2927;49.366;8.530;2024-01-07T11:46:29;4.90;99.90
5802;DHT22;2927;49.366;8.530;2024-01-07T11:48:57;4.70;1.00
5802;DHT22;2927;49.366;8.530;2024-01-07T11:51:28;4.50;41.90
5802;DHT22;2927;49.366;8.530;2024-01-07T11:53:54;4.40;1.00
5802;DHT22;2927;49.366;8.530;2024-01-07T11:56:20;4.40;1.00
5802;DHT22;2927;49.366;8.530;2024-01-07T11:58:52;4.20;1.00
5802;DHT22;2927;49.366;8.530;2024-01-07T12:01:18;4.20;1.00
5802;DHT22;2927;49.366;8.530;2024-01-07T12:03:44;4.20;21.50
5802;DHT22;2927;49.366;8.530;2024-01-07T12:06:11;4.10;1.00
5802;DHT22;2927;49.366;8.530;2024-01-07T12:08:41;4.00;1.00
5802;DHT22;2927;49.366;8.530;2024-01-07T12:11:06;4.00;1.00
5802;DHT22;2927;49.366;8.530;2024-01-07T12:13:33;3.90;1.00
5802;DHT22;2927;49.366;8.530;2024-01-07T12:15:58;3.90;1.00
5802;DHT22;2927;49.366;8.530;2024-01-07T12:18:24;3.90;1.00
5802;DHT22;2927;49.366;8.530;2024-01-07T12:20:58;3.90;99.90
5802;DHT22;2927;49.366;8.530;2024-01-07T12:23:25;3.90;1.00
5802;DHT22;2927;49.366;8.530;2024-01-07T12:25:54;3.90;99.90
5802;DHT22;2927;49.366;8.530;2024-01-07T12:28:22;3.90;1.00
5802;DHT22;2927;49.366;8.530;2024-01-07T12:30:48;3.90;99.90
5802;DHT22;2927;49.366;8.530;2024-01-07T12:33:19;3.80;99.90
5802;DHT22;2927;49.366;8.530;2024-01-07T12:35:48;3.80;1.00
5802;DHT22;2927;49.366;8.530;2024-01-07T12:38:13;3.80;1.00
5802;DHT22;2927;49.366;8.530;2024-01-07T12:40:39;3.90;1.00
5802;DHT22;2927;49.366;8.530;2024-01-07T12:43:05;3.90;99.90
5802;DHT22;2927;49.366;8.530;2024-01-07T12:45:33;3.70;1.00
5802;DHT22;2927;49.366;8.530;2024-01-07T12:47:58;3.70;1.00
5802;DHT22;2927;49.366;8.530;2024-01-07T12:50:27;3.70;1.00
5802;DHT22;2927;49.366;8.530;2024-01-07T12:52:55;3.70;99.90
5802;DHT22;2927;49.366;8.530;2024-01-07T12:55:21;3.70;1.00
5802;DHT22;2927;49.366;8.530;2024-01-07T12:57:47;3.60;1.00
5802;DHT22;2927;49.366;8.530;2024-01-07T13:00:13;3.50;1.00
5802;DHT22;2927;49.366;8.530;2024-01-07T13:02:39;3.50;1.00
5802;DHT22;2927;49.366;8.530;2024-01-07T13:05:05;3.50;1.00
5802;DHT22;2927;49.366;8.530;2024-01-07T13:07:32;3.50;99.90
5802;DHT22;2927;49.366;8.530;2024-01-07T13:09:57;3.50;99.90
5802;DHT22;2927;49.366;8.530;2024-01-07T13:12:23;3.50;99.90
5802;DHT22;2927;49.366;8.530;2024-01-07T13:14:49;3.40;1.00
5802;DHT22;2927;49.366;8.530;2024-01-07T13:17:15;3.40;1.00
5802;DHT22;2927;49.366;8.530;2024-01-07T13:19:40;3.40;1.00
5802;DHT22;2927;49.366;8.530;2024-01-07T13:22:07;3.30;1.00
5802;DHT22;2927;49.366;8.530;2024-01-07T13:24:32;3.30;1.00
5802;DHT22;2927;49.366;8.530;2024-01-07T13:26:58;3.30;99.90
5802;DHT22;2927;49.366;8.530;2024-01-07T13:29:24;3.30;99.90
5802;DHT22;2927;49.366;8.530;2024-01-07T13:31:50;3.20;1.00
5802;DHT22;2927;49.366;8.530;2024-01-07T13:34:16;3.30;99.90
5802;DHT22;2927;49.366;8.530;2024-01-07T13:36:43;3.20;1.00
5802;DHT22;2927;49.366;8.530;2024-01-07T13:39:09;3.20;99.90
5802;DHT22;2927;49.366;8.530;2024-01-07T13:41:36;3.20;1.00
5802;DHT22;2927;49.366;8.530;2024-01-07T13:44:01;3.20;1.00
5802;DHT22;2927;49.366;8.530;2024-01-07T13:46:28;3.20;97.40
5802;DHT22;2927;49.366;8.530;2024-01-07T13:48:54;3.10;99.90
5802;DHT22;2927;49.366;8.530;2024-01-07T13:51:19;3.10;1.00
5802;DHT22;2927;49.366;8.530;2024-01-07T13:53:45;3.10;1.00
5802;DHT22;2927;49.366;8.530;2024-01-07T13:56:11;3.10;1.00
5802;DHT22;2927;49.366;8.530;2024-01-07T13:58:37;3.00;1.00
5802;DHT22;2927;49.366;8.530;2024-01-07T14:01:03;3.00;1.00
5802;DHT22;2927;49.366;8.530;2024-01-07T14:03:28;2.90;1.00
5802;DHT22;2927;49.366;8.530;2024-01-07T14:05:55;3.00;99.90
5802;DHT22;2927;49.366;8.530;2024-01-07T14:08:21;3.00;1.00
5802;DHT22;2927;49.366;8.530;2024-01-07T14:10:47;3.00;1.00
5802;DHT22;2927;49.366;8.530;2024-01-07T14:13:13;3.00;99.90
5802;DHT22;2927;49.366;8.530;2024-01-07T14:15:39;2.80;1.00
5802;DHT22;2927;49.366;8.530;2024-01-07T14:18:05;2.80;1.00
5802;DHT22;2927;49.366;8.530;2024-01-07T14:20:30;2.80;1.00
5802;DHT22;2927;49.366;8.530;2024-01-07T14:22:56;2.70;1.00
5802;DHT22;2927;49.366;8.530;2024-01-07T14:25:22;2.60;1.00
5802;DHT22;2927;49.366;8.530;2024-01-07T14:27:47;2.60;1.00
5802;DHT22;2927;49.366;8.530;2024-01-07T14:30:13;2.60;1.00
5802;DHT22;2927;49.366;8.530;2024-01-07T14:32:40;2.60;1.00
5802;DHT22;2927;49.366;8.530;2024-01-07T14:35:06;2.60;1.00
5802;DHT22;2927;49.366;8.530;2024-01-07T14:37:32;2.50;1.00
5802;DHT22;2927;49.366;8.530;2024-01-07T14:39:58;2.60;1.00
5802;DHT22;2927;49.366;8.530;2024-01-07T14:42:23;2.50;1.00
5802;DHT22;2927;49.366;8.530;2024-01-07T14:44:49;2.50;1.00
5802;DHT22;2927;49.366;8.530;2024-01-07T14:47:15;2.60;1.00
5802;DHT22;2927;49.366;8.530;2024-01-07T14:49:41;2.40;1.00
5802;DHT22;2927;49.366;8.530;2024-01-07T14:52:07;2.40;99.90
5802;DHT22;2927;49.366;8.530;2024-01-07T14:54:32;2.40;99.90
5802;DHT22;2927;49.366;8.530;2024-01-07T14:57:00;2.40;99.90
5802;DHT22;2927;49.366;8.530;2024-01-07T14:59:26;2.40;99.90
5802;DHT22;2927;49.366;8.530;2024-01-07T15:01:51;2.40;99.90
5802;DHT22;2927;49.366;8.530;2024-01-07T15:04:19;2.40;99.90
5802;DHT22;2927;49.366;8.530;2024-01-07T15:06:44;2.40;99.90
5802;DHT22;2927;49.366;8.530;2024-01-07T15:09:12;2.30;25.50
5802;DHT22;2927;49.366;8.530;2024-01-07T15:11:39;2.20;99.90
5802;DHT22;2927;49.366;8.530;2024-01-07T15:14:08;2.20;99.90
5802;DHT22;2927;49.366;8.530;2024-01-07T15:16:36;2.20;99.90
5802;DHT22;2927;49.366;8.530;2024-01-07T15:19:02;2.20;99.90
5802;DHT22;2927;49.366;8.530;2024-01-07T15:21:28;2.20;99.90
5802;DHT22;2927;49.366;8.530;2024-01-07T15:23:54;2.20;99.90
5802;DHT22;2927;49.366;8.530;2024-01-07T15:26:19;2.20;99.90
5802;DHT22;2927;49.366;8.530;2024-01-07T15:28:45;2.20;99.90
5802;DHT22;2927;49.366;8.530;2024-01-07T15:31:10;2.10;99.90
5802;DHT22;2927;49.366;8.530;2024-01-07T15:33:36;2.20;1.00
5802;DHT22;2927;49.366;8.530;2024-01-07T15:36:05;2.20;99.90
5802;DHT22;2927;49.366;8.530;2024-01-07T15:38:30;2.10;99.90
5802;DHT22;2927;49.366;8.530;2024-01-07T15:40:56;2.20;1.00
5802;DHT22;2927;49.366;8.530;2024-01-07T15:43:22;2.20;1.00
5802;DHT22;2927;49.366;8.530;2024-01-07T15:45:47;2.10;1.00
5802;DHT22;2927;49.366;8.530;2024-01-07T15:48:13;2.10;1.00
5802;DHT22;2927;49.366;8.530;2024-01-07T15:50:40;2.00;1.00
5802;DHT22;2927;49.366;8.530;2024-01-07T15:53:05;2.00;1.00
5802;DHT22;2927;49.366;8.530;2024-01-07T15:55:31;2.00;1.00
5802;DHT22;2927;49.366;8.530;2024-01-07T15:57:57;2.00;1.00
5802;DHT22;2927;49.366;8.530;2024-01-07T16:00:22;2.10;1.00
5802;DHT22;2927;49.366;8.530;2024-01-07T16:02:48;1.90;1.00
5802;DHT22;2927;49.366;8.530;2024-01-07T16:05:14;1.90;1.00
5802;DHT22;2927;49.366;8.530;2024-01-07T16:07:40;1.90;99.90
5802;DHT22;2927;49.366;8.530;2024-01-07T16:10:06;1.80;99.90
5802;DHT22;2927;49.366;8.530;2024-01-07T16:12:31;1.70;99.90
5802;DHT22;2927;49.366;8.530;2024-01-07T16:14:57;1.70;1.00
5802;DHT22;2927;49.366;8.530;2024-01-07T16:17:23;1.70;1.00
5802;DHT22;2927;49.366;8.530;2024-01-07T16:19:49;1.70;1.00
5802;DHT22;2927;49.366;8.530;2024-01-07T16:22:16;1.70;1.00
5802;DHT22;2927;49.366;8.530;2024-01-07T16:24:42;1.70;1.00